sensor_id;sensor_type;location;lat;lon;timestamp;P1;durP1;ratioP1;P2;durP2;ratioP2
43150;SDS011;28755;51.478;5.702;2023-04-24T00:02:18;17.17;;;12.00;;
43150;SDS011;28755;51.478;5.702;2023-04-24T00:04:43;18.35;;;12.70;;
43150;SDS011;28755;51.478;5.702;2023-04-24T00:07:12;17.88;;;12.65;;
43150;SDS011;28755;51.478;5.702;2023-04-24T00:09:38;19.40;;;12.63;;
43150;SDS011;28755;51.478;5.702;2023-04-24T00:12:03;17.63;;;12.25;;
43150;SDS011;28755;51.478;5.702;2023-04-24T00:14:30;21.95;;;13.90;;
43150;SDS011;28755;51.478;5.702;2023-04-24T00:16:56;18.40;;;13.27;;
43150;SDS011;28755;51.478;5.702;2023-04-24T00:19:21;20.55;;;12.77;;
43150;SDS011;28755;51.478;5.702;2023-04-24T00:21:47;25.05;;;13.00;;
43150;SDS011;28755;51.478;5.702;2023-04-24T00:24:15;19.13;;;13.30;;
43150;SDS011;28755;51.478;5.702;2023-04-24T00:26:41;18.75;;;12.57;;
43150;SDS011;28755;51.478;5.702;2023-04-24T00:29:07;19.52;;;12.45;;
43150;SDS011;28755;51.478;5.702;2023-04-24T00:31:32;18.42;;;12.50;;
43150;SDS011;28755;51.478;5.702;2023-04-24T00:34:01;21.05;;;12.15;;
43150;SDS011;28755;51.478;5.702;2023-04-24T00:36:27;18.38;;;12.73;;
43150;SDS011;28755;51.478;5.702;2023-04-24T00:38:53;16.73;;;12.00;;
43150;SDS011;28755;51.478;5.702;2023-04-24T00:41:20;17.80;;;12.02;;
43150;SDS011;28755;51.478;5.702;2023-04-24T00:43:46;20.27;;;11.80;;
43150;SDS011;28755;51.478;5.702;2023-04-24T00:46:12;21.63;;;12.25;;
43150;SDS011;28755;51.478;5.702;2023-04-24T00:48:38;23.02;;;13.02;;
43150;SDS011;28755;51.478;5.702;2023-04-24T00:51:05;23.55;;;13.07;;
43150;SDS011;28755;51.478;5.702;2023-04-24T00:53:30;20.83;;;13.15;;
43150;SDS011;28755;51.478;5.702;2023-04-24T00:55:56;24.63;;;13.23;;
43150;SDS011;28755;51.478;5.702;2023-04-24T00:58:22;20.30;;;13.52;;
43150;SDS011;28755;51.478;5.702;2023-04-24T01:00:48;19.52;;;14.20;;
43150;SDS011;28755;51.478;5.702;2023-04-24T01:03:18;23.85;;;14.27;;
43150;SDS011;28755;51.478;5.702;2023-04-24T01:05:45;23.15;;;14.95;;
43150;SDS011;28755;51.478;5.702;2023-04-24T01:08:11;27.85;;;15.73;;
43150;SDS011;28755;51.478;5.702;2023-04-24T01:10:36;22.63;;;15.50;;
43150;SDS011;28755;51.478;5.702;2023-04-24T01:13:05;24.42;;;15.77;;
43150;SDS011;28755;51.478;5.702;2023-04-24T01:15:30;25.98;;;16.25;;
43150;SDS011;28755;51.478;5.702;2023-04-24T01:17:56;30.35;;;14.60;;
43150;SDS011;28755;51.478;5.702;2023-04-24T01:20:22;26.60;;;15.50;;
43150;SDS011;28755;51.478;5.702;2023-04-24T01:22:49;27.63;;;16.40;;
43150;SDS011;28755;51.478;5.702;2023-04-24T01:25:15;29.00;;;16.65;;
43150;SDS011;28755;51.478;5.702;2023-04-24T01:27:40;26.70;;;16.92;;
43150;SDS011;28755;51.478;5.702;2023-04-24T01:30:07;25.98;;;17.50;;
43150;SDS011;28755;51.478;5.702;2023-04-24T01:32:33;23.73;;;16.17;;
43150;SDS011;28755;51.478;5.702;2023-04-24T01:34:59;32.60;;;17.25;;
43150;SDS011;28755;51.478;5.702;2023-04-24T01:37:25;24.05;;;17.92;;
43150;SDS011;28755;51.478;5.702;2023-04-24T01:39:51;31.38;;;17.02;;
43150;SDS011;28755;51.478;5.702;2023-04-24T01:42:17;33.05;;;19.05;;
43150;SDS011;28755;51.478;5.702;2023-04-24T01:44:43;28.88;;;18.67;;
43150;SDS011;28755;51.478;5.702;2023-04-24T01:47:09;24.65;;;17.98;;
43150;SDS011;28755;51.478;5.702;2023-04-24T01:49:35;30.73;;;17.67;;
43150;SDS011;28755;51.478;5.702;2023-04-24T01:52:03;30.25;;;18.55;;
43150;SDS011;28755;51.478;5.702;2023-04-24T01:54:28;31.50;;;17.88;;
43150;SDS011;28755;51.478;5.702;2023-04-24T01:56:54;29.90;;;18.63;;
43150;SDS011;28755;51.478;5.702;2023-04-24T01:59:19;30.92;;;19.15;;
43150;SDS011;28755;51.478;5.702;2023-04-24T02:01:46;28.58;;;18.63;;
43150;SDS011;28755;51.478;5.702;2023-04-24T02:04:12;32.03;;;19.83;;
43150;SDS011;28755;51.478;5.702;2023-04-24T02:06:38;29.55;;;18.73;;
43150;SDS011;28755;51.478;5.702;2023-04-24T02:09:04;30.65;;;20.10;;
43150;SDS011;28755;51.478;5.702;2023-04-24T02:11:30;29.58;;;20.15;;
43150;SDS011;28755;51.478;5.702;2023-04-24T02:13:56;33.55;;;19.83;;
43150;SDS011;28755;51.478;5.702;2023-04-24T02:16:21;33.58;;;19.98;;
43150;SDS011;28755;51.478;5.702;2023-04-24T02:18:47;28.70;;;19.38;;
43150;SDS011;28755;51.478;5.702;2023-04-24T02:21:12;28.40;;;19.25;;
43150;SDS011;28755;51.478;5.702;2023-04-24T02:23:38;30.25;;;20.15;;
43150;SDS011;28755;51.478;5.702;2023-04-24T02:26:03;31.02;;;20.55;;
43150;SDS011;28755;51.478;5.702;2023-04-24T02:28:29;30.58;;;19.33;;
43150;SDS011;28755;51.478;5.702;2023-04-24T02:30:55;29.00;;;19.33;;
43150;SDS011;28755;51.478;5.702;2023-04-24T02:33:20;32.28;;;20.05;;
43150;SDS011;28755;51.478;5.702;2023-04-24T02:35:46;27.45;;;18.67;;
43150;SDS011;28755;51.478;5.702;2023-04-24T02:38:11;29.35;;;19.65;;
43150;SDS011;28755;51.478;5.702;2023-04-24T02:40:37;32.72;;;19.77;;
43150;SDS011;28755;51.478;5.702;2023-04-24T02:43:02;32.70;;;18.23;;
43150;SDS011;28755;51.478;5.702;2023-04-24T02:45:28;30.05;;;19.67;;
43150;SDS011;28755;51.478;5.702;2023-04-24T02:47:53;30.70;;;19.77;;
43150;SDS011;28755;51.478;5.702;2023-04-24T02:50:19;24.80;;;18.38;;
43150;SDS011;28755;51.478;5.702;2023-04-24T02:52:45;33.67;;;19.05;;
43150;SDS011;28755;51.478;5.702;2023-04-24T02:55:10;26.08;;;18.38;;
43150;SDS011;28755;51.478;5.702;2023-04-24T02:57:36;28.88;;;18.13;;
43150;SDS011;28755;51.478;5.702;2023-04-24T03:00:02;25.95;;;17.42;;
43150;SDS011;28755;51.478;5.702;2023-04-24T03:02:28;29.23;;;17.92;;
43150;SDS011;28755;51.478;5.702;2023-04-24T03:04:53;29.30;;;17.98;;
43150;SDS011;28755;51.478;5.702;2023-04-24T03:07:20;27.27;;;17.13;;
43150;SDS011;28755;51.478;5.702;2023-04-24T03:09:45;26.75;;;16.40;;
43150;SDS011;28755;51.478;5.702;2023-04-24T03:12:12;32.03;;;17.42;;
43150;SDS011;28755;51.478;5.702;2023-04-24T03:14:37;27.52;;;15.75;;
43150;SDS011;28755;51.478;5.702;2023-04-24T03:17:03;27.25;;;16.02;;
43150;SDS011;28755;51.478;5.702;2023-04-24T03:19:29;26.33;;;15.63;;
43150;SDS011;28755;51.478;5.702;2023-04-24T03:21:55;25.98;;;15.43;;
43150;SDS011;28755;51.478;5.702;2023-04-24T03:24:20;26.40;;;15.35;;
43150;SDS011;28755;51.478;5.702;2023-04-24T03:26:46;27.38;;;15.05;;
43150;SDS011;28755;51.478;5.702;2023-04-24T03:29:11;23.50;;;14.27;;
43150;SDS011;28755;51.478;5.702;2023-04-24T03:31:37;20.98;;;14.68;;
43150;SDS011;28755;51.478;5.702;2023-04-24T03:34:02;22.45;;;13.88;;
43150;SDS011;28755;51.478;5.702;2023-04-24T03:36:28;22.70;;;14.77;;
43150;SDS011;28755;51.478;5.702;2023-04-24T03:38:53;25.75;;;13.82;;
43150;SDS011;28755;51.478;5.702;2023-04-24T03:41:19;23.23;;;13.60;;
43150;SDS011;28755;51.478;5.702;2023-04-24T03:43:45;22.50;;;14.20;;
43150;SDS011;28755;51.478;5.702;2023-04-24T03:46:10;21.85;;;13.75;;
43150;SDS011;28755;51.478;5.702;2023-04-24T03:48:36;28.08;;;13.95;;
43150;SDS011;28755;51.478;5.702;2023-04-24T03:51:01;23.75;;;14.05;;
43150;SDS011;28755;51.478;5.702;2023-04-24T03:53:27;20.73;;;14.00;;
43150;SDS011;28755;51.478;5.702;2023-04-24T03:55:53;26.15;;;14.93;;
43150;SDS011;28755;51.478;5.702;2023-04-24T03:58:18;23.55;;;14.07;;
43150;SDS011;28755;51.478;5.702;2023-04-24T04:00:44;25.65;;;13.82;;
43150;SDS011;28755;51.478;5.702;2023-04-24T04:03:12;21.40;;;13.00;;
43150;SDS011;28755;51.478;5.702;2023-04-24T04:05:39;19.73;;;13.68;;
43150;SDS011;28755;51.478;5.702;2023-04-24T04:08:05;22.52;;;12.57;;
43150;SDS011;28755;51.478;5.702;2023-04-24T04:10:30;17.13;;;12.70;;
43150;SDS011;28755;51.478;5.702;2023-04-24T04:12:56;17.50;;;11.80;;
43150;SDS011;28755;51.478;5.702;2023-04-24T04:15:21;19.17;;;13.35;;
43150;SDS011;28755;51.478;5.702;2023-04-24T04:17:47;18.42;;;12.23;;
43150;SDS011;28755;51.478;5.702;2023-04-24T04:20:13;23.13;;;13.30;;
43150;SDS011;28755;51.478;5.702;2023-04-24T04:22:38;19.42;;;13.05;;
43150;SDS011;28755;51.478;5.702;2023-04-24T04:25:04;19.27;;;12.73;;
43150;SDS011;28755;51.478;5.702;2023-04-24T04:27:30;18.77;;;12.20;;
43150;SDS011;28755;51.478;5.702;2023-04-24T04:29:57;17.95;;;12.40;;
43150;SDS011;28755;51.478;5.702;2023-04-24T04:32:29;19.23;;;13.30;;
43150;SDS011;28755;51.478;5.702;2023-04-24T04:34:56;15.30;;;11.52;;
43150;SDS011;28755;51.478;5.702;2023-04-24T04:37:21;20.33;;;12.38;;
43150;SDS011;28755;51.478;5.702;2023-04-24T04:39:47;20.15;;;12.98;;
43150;SDS011;28755;51.478;5.702;2023-04-24T04:42:12;18.42;;;12.68;;
43150;SDS011;28755;51.478;5.702;2023-04-24T04:44:38;17.67;;;12.38;;
43150;SDS011;28755;51.478;5.702;2023-04-24T04:47:04;17.65;;;11.88;;
43150;SDS011;28755;51.478;5.702;2023-04-24T04:49:30;17.02;;;11.70;;
43150;SDS011;28755;51.478;5.702;2023-04-24T04:51:57;19.77;;;12.45;;
43150;SDS011;28755;51.478;5.702;2023-04-24T04:54:22;14.90;;;11.77;;
43150;SDS011;28755;51.478;5.702;2023-04-24T04:56:51;15.38;;;11.77;;
43150;SDS011;28755;51.478;5.702;2023-04-24T04:59:17;18.77;;;12.05;;
43150;SDS011;28755;51.478;5.702;2023-04-24T05:01:42;22.23;;;13.38;;
43150;SDS011;28755;51.478;5.702;2023-04-24T05:04:08;24.73;;;12.95;;
43150;SDS011;28755;51.478;5.702;2023-04-24T05:06:34;19.23;;;12.95;;
43150;SDS011;28755;51.478;5.702;2023-04-24T05:08:59;19.45;;;12.70;;
43150;SDS011;28755;51.478;5.702;2023-04-24T05:11:25;18.80;;;12.73;;
43150;SDS011;28755;51.478;5.702;2023-04-24T05:13:50;19.50;;;12.68;;
43150;SDS011;28755;51.478;5.702;2023-04-24T05:16:16;19.35;;;11.90;;
43150;SDS011;28755;51.478;5.702;2023-04-24T05:18:41;15.18;;;11.80;;
43150;SDS011;28755;51.478;5.702;2023-04-24T05:21:07;19.95;;;12.25;;
43150;SDS011;28755;51.478;5.702;2023-04-24T05:23:32;15.68;;;11.00;;
43150;SDS011;28755;51.478;5.702;2023-04-24T05:25:58;15.18;;;11.10;;
43150;SDS011;28755;51.478;5.702;2023-04-24T05:28:23;16.02;;;11.25;;
43150;SDS011;28755;51.478;5.702;2023-04-24T05:30:53;14.43;;;10.27;;
43150;SDS011;28755;51.478;5.702;2023-04-24T05:33:19;14.85;;;10.60;;
43150;SDS011;28755;51.478;5.702;2023-04-24T05:35:44;16.48;;;10.43;;
43150;SDS011;28755;51.478;5.702;2023-04-24T05:38:11;11.25;;;9.20;;
43150;SDS011;28755;51.478;5.702;2023-04-24T05:40:37;9.90;;;7.85;;
43150;SDS011;28755;51.478;5.702;2023-04-24T05:43:03;9.70;;;7.68;;
43150;SDS011;28755;51.478;5.702;2023-04-24T05:45:29;7.18;;;6.47;;
43150;SDS011;28755;51.478;5.702;2023-04-24T05:47:54;7.22;;;5.60;;
43150;SDS011;28755;51.478;5.702;2023-04-24T05:50:20;7.00;;;5.50;;
43150;SDS011;28755;51.478;5.702;2023-04-24T05:52:46;7.20;;;4.70;;
43150;SDS011;28755;51.478;5.702;2023-04-24T05:55:11;8.48;;;4.85;;
43150;SDS011;28755;51.478;5.702;2023-04-24T05:57:37;6.68;;;4.40;;
43150;SDS011;28755;51.478;5.702;2023-04-24T06:00:03;8.77;;;5.13;;
43150;SDS011;28755;51.478;5.702;2023-04-24T06:02:29;6.72;;;4.10;;
43150;SDS011;28755;51.478;5.702;2023-04-24T06:04:57;4.88;;;3.45;;
43150;SDS011;28755;51.478;5.702;2023-04-24T06:07:24;10.63;;;3.45;;
43150;SDS011;28755;51.478;5.702;2023-04-24T06:09:51;5.25;;;3.20;;
43150;SDS011;28755;51.478;5.702;2023-04-24T06:12:17;6.65;;;2.50;;
43150;SDS011;28755;51.478;5.702;2023-04-24T06:14:42;5.55;;;2.38;;
43150;SDS011;28755;51.478;5.702;2023-04-24T06:17:08;6.38;;;2.08;;
43150;SDS011;28755;51.478;5.702;2023-04-24T06:19:34;2.25;;;1.60;;
43150;SDS011;28755;51.478;5.702;2023-04-24T06:21:59;6.30;;;2.17;;
43150;SDS011;28755;51.478;5.702;2023-04-24T06:24:28;3.53;;;1.85;;
43150;SDS011;28755;51.478;5.702;2023-04-24T06:26:54;4.50;;;2.00;;
43150;SDS011;28755;51.478;5.702;2023-04-24T06:29:20;3.50;;;1.77;;
43150;SDS011;28755;51.478;5.702;2023-04-24T06:31:45;3.00;;;1.90;;
43150;SDS011;28755;51.478;5.702;2023-04-24T06:34:11;3.45;;;1.90;;
43150;SDS011;28755;51.478;5.702;2023-04-24T06:36:36;5.63;;;1.92;;
43150;SDS011;28755;51.478;5.702;2023-04-24T06:39:02;2.80;;;1.95;;
43150;SDS011;28755;51.478;5.702;2023-04-24T06:41:28;4.05;;;2.40;;
43150;SDS011;28755;51.478;5.702;2023-04-24T06:43:53;4.60;;;2.25;;
43150;SDS011;28755;51.478;5.702;2023-04-24T06:46:19;3.42;;;2.45;;
43150;SDS011;28755;51.478;5.702;2023-04-24T06:48:48;4.47;;;3.10;;
43150;SDS011;28755;51.478;5.702;2023-04-24T06:51:14;5.40;;;3.08;;
43150;SDS011;28755;51.478;5.702;2023-04-24T06:53:40;3.90;;;2.47;;
43150;SDS011;28755;51.478;5.702;2023-04-24T06:56:05;2.60;;;1.90;;
43150;SDS011;28755;51.478;5.702;2023-04-24T06:58:31;5.32;;;1.88;;
43150;SDS011;28755;51.478;5.702;2023-04-24T07:00:57;2.88;;;1.83;;
43150;SDS011;28755;51.478;5.702;2023-04-24T07:03:22;3.45;;;2.30;;
43150;SDS011;28755;51.478;5.702;2023-04-24T07:05:48;3.92;;;2.60;;
43150;SDS011;28755;51.478;5.702;2023-04-24T07:08:14;5.78;;;3.67;;
43150;SDS011;28755;51.478;5.702;2023-04-24T07:10:42;11.23;;;3.80;;
43150;SDS011;28755;51.478;5.702;2023-04-24T07:13:07;5.18;;;3.63;;
43150;SDS011;28755;51.478;5.702;2023-04-24T07:15:33;7.70;;;5.97;;
43150;SDS011;28755;51.478;5.702;2023-04-24T07:17:59;11.48;;;7.40;;
43150;SDS011;28755;51.478;5.702;2023-04-24T07:20:25;12.32;;;8.45;;
43150;SDS011;28755;51.478;5.702;2023-04-24T07:22:51;14.80;;;9.63;;
43150;SDS011;28755;51.478;5.702;2023-04-24T07:25:18;13.70;;;9.65;;
43150;SDS011;28755;51.478;5.702;2023-04-24T07:27:44;14.90;;;10.60;;
43150;SDS011;28755;51.478;5.702;2023-04-24T07:30:10;20.30;;;12.93;;
43150;SDS011;28755;51.478;5.702;2023-04-24T07:32:36;19.05;;;11.65;;
43150;SDS011;28755;51.478;5.702;2023-04-24T07:35:01;18.20;;;12.07;;
43150;SDS011;28755;51.478;5.702;2023-04-24T07:37:27;22.48;;;13.88;;
43150;SDS011;28755;51.478;5.702;2023-04-24T07:39:53;23.58;;;13.60;;
43150;SDS011;28755;51.478;5.702;2023-04-24T07:42:19;19.98;;;13.43;;
43150;SDS011;28755;51.478;5.702;2023-04-24T07:44:45;19.88;;;13.20;;
43150;SDS011;28755;51.478;5.702;2023-04-24T07:47:12;18.58;;;12.43;;
43150;SDS011;28755;51.478;5.702;2023-04-24T07:49:40;20.58;;;12.20;;
43150;SDS011;28755;51.478;5.702;2023-04-24T07:52:06;16.67;;;10.95;;
43150;SDS011;28755;51.478;5.702;2023-04-24T07:54:32;19.77;;;11.48;;
43150;SDS011;28755;51.478;5.702;2023-04-24T07:56:57;18.95;;;11.60;;
43150;SDS011;28755;51.478;5.702;2023-04-24T07:59:23;23.15;;;11.20;;
43150;SDS011;28755;51.478;5.702;2023-04-24T08:01:49;21.77;;;13.43;;
43150;SDS011;28755;51.478;5.702;2023-04-24T08:04:14;20.60;;;11.43;;
43150;SDS011;28755;51.478;5.702;2023-04-24T08:06:40;25.08;;;11.93;;
43150;SDS011;28755;51.478;5.702;2023-04-24T08:09:06;13.48;;;8.73;;
43150;SDS011;28755;51.478;5.702;2023-04-24T08:11:31;13.30;;;8.05;;
43150;SDS011;28755;51.478;5.702;2023-04-24T08:13:57;16.00;;;7.50;;
43150;SDS011;28755;51.478;5.702;2023-04-24T08:16:23;18.50;;;8.88;;
43150;SDS011;28755;51.478;5.702;2023-04-24T08:18:49;18.42;;;7.80;;
43150;SDS011;28755;51.478;5.702;2023-04-24T08:21:15;15.95;;;8.73;;
43150;SDS011;28755;51.478;5.702;2023-04-24T08:23:42;18.48;;;8.32;;
43150;SDS011;28755;51.478;5.702;2023-04-24T08:26:08;18.08;;;7.85;;
43150;SDS011;28755;51.478;5.702;2023-04-24T08:28:34;20.02;;;7.90;;
43150;SDS011;28755;51.478;5.702;2023-04-24T08:30:59;18.92;;;7.18;;
43150;SDS011;28755;51.478;5.702;2023-04-24T08:33:25;16.35;;;7.72;;
43150;SDS011;28755;51.478;5.702;2023-04-24T08:35:50;19.48;;;8.48;;
43150;SDS011;28755;51.478;5.702;2023-04-24T08:38:16;21.98;;;8.32;;
43150;SDS011;28755;51.478;5.702;2023-04-24T08:40:42;25.55;;;8.25;;
43150;SDS011;28755;51.478;5.702;2023-04-24T08:43:08;19.70;;;7.72;;
43150;SDS011;28755;51.478;5.702;2023-04-24T08:45:35;22.33;;;8.05;;
43150;SDS011;28755;51.478;5.702;2023-04-24T08:48:01;22.77;;;8.35;;
43150;SDS011;28755;51.478;5.702;2023-04-24T08:50:29;25.05;;;10.18;;
43150;SDS011;28755;51.478;5.702;2023-04-24T08:52:55;27.02;;;9.05;;
43150;SDS011;28755;51.478;5.702;2023-04-24T08:55:22;24.90;;;9.45;;
43150;SDS011;28755;51.478;5.702;2023-04-24T08:57:50;21.60;;;8.80;;
43150;SDS011;28755;51.478;5.702;2023-04-24T09:00:18;24.73;;;9.05;;
43150;SDS011;28755;51.478;5.702;2023-04-24T09:02:47;21.73;;;9.60;;
43150;SDS011;28755;51.478;5.702;2023-04-24T09:05:14;24.05;;;9.63;;
43150;SDS011;28755;51.478;5.702;2023-04-24T09:07:42;32.30;;;9.43;;
43150;SDS011;28755;51.478;5.702;2023-04-24T09:10:11;24.75;;;9.40;;
43150;SDS011;28755;51.478;5.702;2023-04-24T09:12:37;24.48;;;8.95;;
43150;SDS011;28755;51.478;5.702;2023-04-24T09:15:03;27.88;;;9.05;;
43150;SDS011;28755;51.478;5.702;2023-04-24T09:17:30;31.75;;;7.65;;
43150;SDS011;28755;51.478;5.702;2023-04-24T09:19:56;31.77;;;6.95;;
43150;SDS011;28755;51.478;5.702;2023-04-24T09:22:21;25.42;;;6.43;;
43150;SDS011;28755;51.478;5.702;2023-04-24T09:24:47;23.58;;;6.15;;
43150;SDS011;28755;51.478;5.702;2023-04-24T09:27:13;18.83;;;5.63;;
43150;SDS011;28755;51.478;5.702;2023-04-24T09:29:45;21.98;;;5.25;;
43150;SDS011;28755;51.478;5.702;2023-04-24T09:32:20;18.55;;;5.25;;
43150;SDS011;28755;51.478;5.702;2023-04-24T09:34:47;17.23;;;5.47;;
43150;SDS011;28755;51.478;5.702;2023-04-24T09:37:26;17.17;;;5.22;;
43150;SDS011;28755;51.478;5.702;2023-04-24T09:42:45;14.60;;;4.65;;
43150;SDS011;28755;51.478;5.702;2023-04-24T09:45:17;23.27;;;4.60;;
43150;SDS011;28755;51.478;5.702;2023-04-24T09:47:43;18.98;;;4.53;;
43150;SDS011;28755;51.478;5.702;2023-04-24T09:50:09;18.17;;;4.97;;
43150;SDS011;28755;51.478;5.702;2023-04-24T09:52:39;18.23;;;4.72;;
43150;SDS011;28755;51.478;5.702;2023-04-24T09:55:27;22.08;;;5.75;;
43150;SDS011;28755;51.478;5.702;2023-04-24T09:57:55;13.23;;;5.22;;
43150;SDS011;28755;51.478;5.702;2023-04-24T10:00:22;16.35;;;4.85;;
43150;SDS011;28755;51.478;5.702;2023-04-24T10:02:50;15.38;;;4.85;;
43150;SDS011;28755;51.478;5.702;2023-04-24T10:05:19;14.68;;;5.10;;
43150;SDS011;28755;51.478;5.702;2023-04-24T10:07:48;14.38;;;4.30;;
43150;SDS011;28755;51.478;5.702;2023-04-24T10:10:14;18.77;;;4.10;;
43150;SDS011;28755;51.478;5.702;2023-04-24T10:12:40;15.32;;;4.45;;
43150;SDS011;28755;51.478;5.702;2023-04-24T10:15:06;10.48;;;3.38;;
43150;SDS011;28755;51.478;5.702;2023-04-24T10:17:34;22.67;;;3.33;;
43150;SDS011;28755;51.478;5.702;2023-04-24T10:20:01;12.80;;;2.90;;
43150;SDS011;28755;51.478;5.702;2023-04-24T10:22:27;11.32;;;3.13;;
43150;SDS011;28755;51.478;5.702;2023-04-24T10:24:55;9.80;;;2.75;;
43150;SDS011;28755;51.478;5.702;2023-04-24T10:27:21;13.95;;;2.97;;
43150;SDS011;28755;51.478;5.702;2023-04-24T10:29:49;8.40;;;2.45;;
43150;SDS011;28755;51.478;5.702;2023-04-24T10:32:18;13.10;;;2.85;;
43150;SDS011;28755;51.478;5.702;2023-04-24T10:34:43;10.55;;;2.33;;
43150;SDS011;28755;51.478;5.702;2023-04-24T10:37:10;13.60;;;2.63;;
43150;SDS011;28755;51.478;5.702;2023-04-24T10:39:35;7.90;;;2.38;;
43150;SDS011;28755;51.478;5.702;2023-04-24T10:42:03;10.70;;;2.78;;
43150;SDS011;28755;51.478;5.702;2023-04-24T10:44:40;11.32;;;2.78;;
43150;SDS011;28755;51.478;5.702;2023-04-24T10:47:05;8.60;;;2.60;;
43150;SDS011;28755;51.478;5.702;2023-04-24T10:49:38;9.68;;;2.28;;
43150;SDS011;28755;51.478;5.702;2023-04-24T10:52:03;8.60;;;2.53;;
43150;SDS011;28755;51.478;5.702;2023-04-24T10:54:42;7.72;;;1.95;;
43150;SDS011;28755;51.478;5.702;2023-04-24T10:59:48;7.57;;;1.98;;
43150;SDS011;28755;51.478;5.702;2023-04-24T11:02:38;5.72;;;1.20;;
43150;SDS011;28755;51.478;5.702;2023-04-24T11:05:05;2.95;;;0.98;;
43150;SDS011;28755;51.478;5.702;2023-04-24T11:10:44;5.97;;;1.23;;
43150;SDS011;28755;51.478;5.702;2023-04-24T11:13:22;6.18;;;1.33;;
43150;SDS011;28755;51.478;5.702;2023-04-24T11:18:38;7.53;;;1.20;;
43150;SDS011;28755;51.478;5.702;2023-04-24T11:21:11;8.45;;;1.42;;
43150;SDS011;28755;51.478;5.702;2023-04-24T11:23:38;5.40;;;1.40;;
43150;SDS011;28755;51.478;5.702;2023-04-24T11:26:21;4.72;;;1.50;;
43150;SDS011;28755;51.478;5.702;2023-04-24T11:28:49;6.07;;;1.10;;
43150;SDS011;28755;51.478;5.702;2023-04-24T11:31:34;10.15;;;1.50;;
43150;SDS011;28755;51.478;5.702;2023-04-24T11:34:05;7.25;;;1.67;;
43150;SDS011;28755;51.478;5.702;2023-04-24T11:36:32;8.02;;;1.40;;
43150;SDS011;28755;51.478;5.702;2023-04-24T11:38:59;5.10;;;1.23;;
43150;SDS011;28755;51.478;5.702;2023-04-24T11:41:26;7.50;;;1.55;;
43150;SDS011;28755;51.478;5.702;2023-04-24T11:43:53;6.40;;;1.40;;
43150;SDS011;28755;51.478;5.702;2023-04-24T11:46:20;7.63;;;1.50;;
43150;SDS011;28755;51.478;5.702;2023-04-24T11:48:46;6.18;;;1.60;;
43150;SDS011;28755;51.478;5.702;2023-04-24T11:51:12;6.55;;;1.55;;
43150;SDS011;28755;51.478;5.702;2023-04-24T11:53:38;3.25;;;1.30;;
43150;SDS011;28755;51.478;5.702;2023-04-24T11:56:04;10.68;;;1.60;;
43150;SDS011;28755;51.478;5.702;2023-04-24T11:58:38;9.82;;;1.75;;
43150;SDS011;28755;51.478;5.702;2023-04-24T12:01:04;8.10;;;1.60;;
43150;SDS011;28755;51.478;5.702;2023-04-24T12:03:30;7.50;;;1.45;;
43150;SDS011;28755;51.478;5.702;2023-04-24T12:06:06;5.05;;;1.05;;
43150;SDS011;28755;51.478;5.702;2023-04-24T12:08:32;5.35;;;1.20;;
43150;SDS011;28755;51.478;5.702;2023-04-24T12:10:59;5.95;;;1.50;;
43150;SDS011;28755;51.478;5.702;2023-04-24T12:13:26;5.07;;;1.25;;
43150;SDS011;28755;51.478;5.702;2023-04-24T12:15:52;8.13;;;1.52;;
43150;SDS011;28755;51.478;5.702;2023-04-24T12:18:18;5.55;;;1.55;;
43150;SDS011;28755;51.478;5.702;2023-04-24T12:20:46;11.85;;;1.85;;
43150;SDS011;28755;51.478;5.702;2023-04-24T12:23:12;3.00;;;1.10;;
43150;SDS011;28755;51.478;5.702;2023-04-24T12:25:38;5.65;;;1.40;;
43150;SDS011;28755;51.478;5.702;2023-04-24T12:30:29;8.25;;;1.15;;
43150;SDS011;28755;51.478;5.702;2023-04-24T12:32:59;5.95;;;1.70;;
43150;SDS011;28755;51.478;5.702;2023-04-24T12:35:27;22.50;;;3.30;;
43150;SDS011;28755;51.478;5.702;2023-04-24T12:37:53;4.72;;;1.23;;
43150;SDS011;28755;51.478;5.702;2023-04-24T12:40:20;3.88;;;1.23;;
43150;SDS011;28755;51.478;5.702;2023-04-24T12:42:50;28.85;;;4.20;;
43150;SDS011;28755;51.478;5.702;2023-04-24T12:45:17;8.57;;;1.85;;
43150;SDS011;28755;51.478;5.702;2023-04-24T12:47:43;4.45;;;0.93;;
43150;SDS011;28755;51.478;5.702;2023-04-24T12:50:10;10.95;;;1.70;;
43150;SDS011;28755;51.478;5.702;2023-04-24T12:52:37;5.95;;;1.15;;
43150;SDS011;28755;51.478;5.702;2023-04-24T12:55:04;7.15;;;1.38;;
43150;SDS011;28755;51.478;5.702;2023-04-24T12:57:33;6.18;;;1.52;;
43150;SDS011;28755;51.478;5.702;2023-04-24T12:59:59;3.83;;;1.20;;
43150;SDS011;28755;51.478;5.702;2023-04-24T13:02:26;8.63;;;1.23;;
43150;SDS011;28755;51.478;5.702;2023-04-24T13:04:54;8.15;;;1.30;;
43150;SDS011;28755;51.478;5.702;2023-04-24T13:07:20;6.97;;;0.90;;
43150;SDS011;28755;51.478;5.702;2023-04-24T13:09:47;4.70;;;1.23;;
43150;SDS011;28755;51.478;5.702;2023-04-24T13:12:14;5.18;;;1.60;;
43150;SDS011;28755;51.478;5.702;2023-04-24T13:14:40;5.13;;;1.13;;
43150;SDS011;28755;51.478;5.702;2023-04-24T13:17:06;4.70;;;1.05;;
43150;SDS011;28755;51.478;5.702;2023-04-24T13:19:35;3.10;;;0.80;;
43150;SDS011;28755;51.478;5.702;2023-04-24T13:22:02;7.75;;;1.60;;
43150;SDS011;28755;51.478;5.702;2023-04-24T13:24:29;6.15;;;1.38;;
43150;SDS011;28755;51.478;5.702;2023-04-24T13:26:56;6.82;;;1.38;;
43150;SDS011;28755;51.478;5.702;2023-04-24T13:29:21;12.98;;;1.90;;
43150;SDS011;28755;51.478;5.702;2023-04-24T13:31:49;4.72;;;1.20;;
43150;SDS011;28755;51.478;5.702;2023-04-24T13:34:16;2.83;;;1.20;;
43150;SDS011;28755;51.478;5.702;2023-04-24T13:36:42;5.70;;;1.30;;
43150;SDS011;28755;51.478;5.702;2023-04-24T13:39:07;7.15;;;1.00;;
43150;SDS011;28755;51.478;5.702;2023-04-24T13:41:33;2.55;;;0.80;;
43150;SDS011;28755;51.478;5.702;2023-04-24T13:43:59;3.67;;;0.80;;
43150;SDS011;28755;51.478;5.702;2023-04-24T13:46:25;3.60;;;1.00;;
43150;SDS011;28755;51.478;5.702;2023-04-24T13:48:51;4.43;;;1.23;;
43150;SDS011;28755;51.478;5.702;2023-04-24T13:51:17;3.25;;;0.80;;
43150;SDS011;28755;51.478;5.702;2023-04-24T13:53:43;4.40;;;1.50;;
43150;SDS011;28755;51.478;5.702;2023-04-24T13:56:08;7.07;;;1.10;;
43150;SDS011;28755;51.478;5.702;2023-04-24T13:58:34;4.30;;;1.20;;
43150;SDS011;28755;51.478;5.702;2023-04-24T14:01:01;5.97;;;1.30;;
43150;SDS011;28755;51.478;5.702;2023-04-24T14:03:28;12.75;;;2.08;;
43150;SDS011;28755;51.478;5.702;2023-04-24T14:05:53;11.20;;;1.50;;
43150;SDS011;28755;51.478;5.702;2023-04-24T14:08:19;11.82;;;2.33;;
43150;SDS011;28755;51.478;5.702;2023-04-24T14:10:45;5.05;;;1.73;;
43150;SDS011;28755;51.478;5.702;2023-04-24T14:13:10;6.35;;;1.40;;
43150;SDS011;28755;51.478;5.702;2023-04-24T14:15:36;8.55;;;1.50;;
43150;SDS011;28755;51.478;5.702;2023-04-24T14:18:02;12.80;;;1.65;;
43150;SDS011;28755;51.478;5.702;2023-04-24T14:20:28;4.63;;;1.58;;
43150;SDS011;28755;51.478;5.702;2023-04-24T14:22:53;15.27;;;1.98;;
43150;SDS011;28755;51.478;5.702;2023-04-24T14:25:19;8.50;;;1.58;;
43150;SDS011;28755;51.478;5.702;2023-04-24T14:27:45;14.57;;;2.17;;
43150;SDS011;28755;51.478;5.702;2023-04-24T14:30:11;11.00;;;2.72;;
43150;SDS011;28755;51.478;5.702;2023-04-24T14:32:38;9.88;;;1.60;;
43150;SDS011;28755;51.478;5.702;2023-04-24T14:35:04;30.38;;;4.13;;
43150;SDS011;28755;51.478;5.702;2023-04-24T14:37:31;11.60;;;2.20;;
43150;SDS011;28755;51.478;5.702;2023-04-24T14:39:56;25.40;;;3.28;;
43150;SDS011;28755;51.478;5.702;2023-04-24T14:42:22;13.02;;;2.15;;
43150;SDS011;28755;51.478;5.702;2023-04-24T14:44:47;25.55;;;2.92;;